Granby, Connecticut
Current Conditions -  °F | °C
As of 4:51 PM on Wednesday 22 Oct 2014 (Local Time) from KBDL Reporting Station
Drizzle Drizzle  
Wind Chill: 53°   Ceiling: 1500
Heat Index: 53°   Visibility: 9mi
Dew Point: 47°   Wind: 17mph
Humidity: 80%   Direction: 10°N
Pressure: 29.88"   Gusts: 25mph
Location:  41.95°N, 72.79°W
Report Text: KBDL 222051Z 01015G22KT 9SM -DZ BKN015 OVC030 12/08 A2988 RMK AO2 SLP119 RAE15DZB15 P0000 60001 T01170083 58014
Loading
Personal Weather Stations






























Interactive Weather Map
Tropical Storm Tracking
New forecast layout! Learn more

10-Day Weather Forecast

Advertisements
Track Severe Weather on mobile